createdAt,value
2023-03-21T00:04:22.343Z,6.60
2023-03-21T00:09:47.568Z,7.45
2023-03-21T00:15:13.653Z,6.65
2023-03-21T00:20:37.937Z,5.45
2023-03-21T00:26:03.262Z,5.93
2023-03-21T00:31:27.267Z,6.00
2023-03-21T00:36:51.709Z,5.97
2023-03-21T00:42:16.935Z,7.43
2023-03-21T00:47:40.766Z,6.00
2023-03-21T00:53:04.589Z,5.22
2023-03-21T00:58:29.733Z,6.00
2023-03-21T01:04:04.852Z,6.18
2023-03-21T01:09:28.752Z,5.43
2023-03-21T01:14:53.953Z,5.07
2023-03-21T01:20:17.859Z,5.80
2023-03-21T01:25:41.638Z,4.97
2023-03-21T01:31:07.868Z,5.60
2023-03-21T01:36:32.166Z,6.13
2023-03-21T01:42:02.437Z,5.73
2023-03-21T01:47:28.129Z,5.78
2023-03-21T01:53:15.517Z,5.78
2023-03-21T01:58:41.101Z,6.55
2023-03-21T02:04:28.243Z,6.80
2023-03-21T02:10:14.911Z,6.65
2023-03-21T02:15:48.335Z,6.30
2023-03-21T02:21:49.977Z,6.78
2023-03-21T02:27:16.245Z,6.50
2023-03-21T02:32:54.332Z,6.35
2023-03-21T02:38:25.437Z,7.00
2023-03-21T02:43:58.314Z,6.00
2023-03-21T02:49:27.777Z,6.20
2023-03-21T02:54:53.874Z,6.47
2023-03-21T03:00:25.081Z,6.53
2023-03-21T03:05:53.268Z,6.32
2023-03-21T03:11:28.800Z,6.30
2023-03-21T03:17:00.381Z,6.82
2023-03-21T03:22:29.105Z,7.30
2023-03-21T03:27:57.797Z,6.45
2023-03-21T03:33:23.570Z,6.85
2023-03-21T03:38:49.714Z,6.10
2023-03-21T03:44:16.305Z,6.07
2023-03-21T03:49:51.699Z,5.82
2023-03-21T03:55:18.775Z,7.15
2023-03-21T04:00:47.832Z,5.30
2023-03-21T04:06:11.613Z,5.10
2023-03-21T04:11:35.490Z,4.30
2023-03-21T04:17:00.901Z,5.22
2023-03-21T04:22:24.712Z,5.22
2023-03-21T04:27:49.909Z,4.68
2023-03-21T04:33:31.765Z,4.00
2023-03-21T04:38:57.288Z,4.38
2023-03-21T04:44:22.034Z,3.72
2023-03-21T04:49:48.066Z,4.15
2023-03-21T04:55:11.971Z,4.28
2023-03-21T05:00:38.436Z,4.45
2023-03-21T05:06:03.890Z,5.00
2023-03-21T05:11:28.107Z,5.15
2023-03-21T05:16:56.209Z,5.68
2023-03-21T05:22:21.712Z,5.10
2023-03-21T05:27:46.234Z,6.75
2023-03-21T05:33:12.610Z,6.00
2023-03-21T05:38:38.352Z,5.53
2023-03-21T05:44:02.353Z,5.43
2023-03-21T05:49:27.027Z,6.13
2023-03-21T05:54:57.230Z,6.10
2023-03-21T06:00:22.844Z,6.00
2023-03-21T06:06:03.496Z,7.88
2023-03-21T06:17:37.981Z,4.80
2023-03-21T06:23:06.137Z,5.20
2023-03-21T06:28:32.247Z,5.30
2023-03-21T06:33:56.169Z,5.07
2023-03-21T06:39:20.008Z,6.93
2023-03-21T06:44:47.042Z,5.88
2023-03-21T06:50:13.097Z,5.57
2023-03-21T06:55:39.428Z,5.82
2023-03-21T07:01:05.296Z,3.65
2023-03-21T07:06:34.352Z,3.60
2023-03-21T07:11:58.326Z,3.85
2023-03-21T07:17:32.653Z,4.65
2023-03-21T07:22:58.426Z,4.82
2023-03-21T07:28:24.699Z,4.40
2023-03-21T07:33:49.880Z,4.15
2023-03-21T07:39:13.649Z,4.07
2023-03-21T07:44:37.939Z,4.78
2023-03-21T07:50:04.683Z,4.10
2023-03-21T07:55:28.600Z,4.30
2023-03-21T08:00:53.183Z,4.10
2023-03-21T08:06:18.281Z,4.68
2023-03-21T08:11:42.065Z,4.78
2023-03-21T08:17:06.643Z,3.88
2023-03-21T08:22:34.698Z,3.67
2023-03-21T08:27:59.504Z,3.78
2023-03-21T08:33:23.572Z,3.90
2023-03-21T08:38:49.004Z,3.58
2023-03-21T08:44:12.847Z,3.83
2023-03-21T08:49:36.842Z,4.40
2023-03-21T08:55:02.757Z,3.45
2023-03-21T09:00:27.380Z,3.67
2023-03-21T09:05:53.937Z,4.68
2023-03-21T09:11:19.024Z,4.20
2023-03-21T09:16:42.832Z,5.32
2023-03-21T09:22:11.139Z,4.80
2023-03-21T09:27:36.746Z,3.50
2023-03-21T09:33:01.470Z,3.42
2023-03-21T09:38:30.410Z,4.40
2023-03-21T09:44:08.218Z,4.45
2023-03-21T09:49:34.721Z,4.43
2023-03-21T09:54:58.677Z,5.03
2023-03-21T10:00:30.061Z,2.85
2023-03-21T10:05:57.654Z,3.53
2023-03-21T10:11:25.571Z,3.25
2023-03-21T10:16:55.493Z,2.15
2023-03-21T10:22:19.260Z,2.27
2023-03-21T10:27:43.132Z,3.50
2023-03-21T10:33:12.819Z,2.40
2023-03-21T10:38:39.233Z,2.08
2023-03-21T10:44:09.396Z,1.70
2023-03-21T10:49:40.667Z,3.10
2023-03-21T11:00:45.221Z,1.80
2023-03-21T11:06:15.552Z,1.83
2023-03-21T11:11:41.216Z,2.20
2023-03-21T11:17:20.599Z,2.60
2023-03-21T11:22:46.474Z,1.85
2023-03-21T11:28:14.545Z,2.75
2023-03-21T11:33:44.478Z,2.03
2023-03-21T11:39:27.381Z,2.40
2023-03-21T11:45:01.615Z,2.33
2023-03-21T11:50:32.625Z,2.20
2023-03-21T11:56:24.311Z,1.83
2023-03-21T12:02:00.912Z,2.50
2023-03-21T12:07:33.652Z,2.50
2023-03-21T12:13:09.941Z,2.05
2023-03-21T12:18:51.125Z,2.80
2023-03-21T12:24:19.928Z,2.67
2023-03-21T12:30:11.883Z,2.17
2023-03-21T12:35:52.155Z,2.03
2023-03-21T12:41:25.738Z,2.55
2023-03-21T12:46:55.465Z,2.35
2023-03-21T12:52:25.722Z,1.90
2023-03-21T12:57:57.469Z,1.83
2023-03-21T13:03:37.474Z,1.48
2023-03-21T13:09:11.439Z,2.00
2023-03-21T13:14:39.694Z,2.17
2023-03-21T13:20:15.316Z,1.70
2023-03-21T13:25:45.129Z,1.88
2023-03-21T13:31:23.356Z,1.80
2023-03-21T13:36:50.911Z,1.40
2023-03-21T13:42:24.281Z,1.50
2023-03-21T13:47:55.104Z,1.50
2023-03-21T13:53:37.464Z,1.08
2023-03-21T13:59:03.014Z,4.97
2023-03-21T14:04:32.630Z,1.30
2023-03-21T14:10:18.568Z,1.52
2023-03-21T14:15:55.069Z,1.80
2023-03-21T14:21:24.708Z,1.60
2023-03-21T14:26:52.476Z,1.50
2023-03-21T14:32:23.011Z,2.00
2023-03-21T14:37:47.846Z,2.00
2023-03-21T14:43:13.983Z,1.80
2023-03-21T14:48:37.733Z,1.40
2023-03-21T14:54:01.793Z,1.70
2023-03-21T14:59:32.489Z,1.70
2023-03-21T15:05:00.053Z,1.75
2023-03-21T15:10:26.330Z,2.10
2023-03-21T15:15:52.228Z,2.17
2023-03-21T15:21:19.879Z,1.73
2023-03-21T15:26:46.756Z,2.17
2023-03-21T15:32:18.628Z,2.15
2023-03-21T15:37:42.414Z,1.88
2023-03-21T15:43:08.421Z,2.08
2023-03-21T15:48:35.665Z,2.25
2023-03-21T15:53:59.577Z,2.58
2023-03-21T15:59:44.312Z,2.25
2023-03-21T16:05:24.475Z,2.83
2023-03-21T16:10:49.976Z,2.50
2023-03-21T16:16:18.239Z,2.47
2023-03-21T16:21:43.529Z,2.45
2023-03-21T16:27:07.361Z,2.50
2023-03-21T16:32:31.287Z,2.95
2023-03-21T16:37:56.441Z,2.70
2023-03-21T16:43:20.348Z,3.05
2023-03-21T16:48:46.273Z,2.90
2023-03-21T16:54:11.791Z,2.72
2023-03-21T16:59:35.913Z,3.10
2023-03-21T17:04:59.762Z,3.10
2023-03-21T17:10:26.830Z,2.78
2023-03-21T17:15:50.605Z,2.85
2023-03-21T17:21:16.798Z,2.90
2023-03-21T17:26:42.177Z,2.85
2023-03-21T17:32:06.687Z,4.25
2023-03-21T17:37:30.709Z,3.70
2023-03-21T17:42:56.402Z,4.00
2023-03-21T17:48:20.673Z,4.25
2023-03-21T17:53:44.709Z,3.20
2023-03-21T17:59:13.188Z,3.50
2023-03-21T18:04:37.555Z,3.97
2023-03-21T18:10:03.751Z,3.95
2023-03-21T18:15:30.572Z,3.92
2023-03-21T18:20:57.717Z,5.07
2023-03-21T18:26:24.462Z,7.93
2023-03-21T18:32:05.169Z,3.22
2023-03-21T18:37:31.527Z,3.63
2023-03-21T18:43:47.324Z,3.55
2023-03-21T18:48:42.262Z,3.13
2023-03-21T18:54:06.113Z,3.60
2023-03-21T18:59:30.947Z,3.13
2023-03-21T19:04:57.932Z,3.50
2023-03-21T19:10:23.594Z,3.53
2023-03-21T19:15:49.589Z,3.75
2023-03-21T19:21:15.142Z,4.30
2023-03-21T19:26:39.002Z,5.50
2023-03-21T19:32:02.922Z,4.30
2023-03-21T19:37:28.596Z,4.35
2023-03-21T19:42:52.822Z,4.20
2023-03-21T19:48:17.399Z,4.78
2023-03-21T19:53:42.745Z,4.32
2023-03-21T19:59:07.982Z,5.63
2023-03-21T20:04:32.060Z,3.70
2023-03-21T20:09:57.524Z,3.25
2023-03-21T20:15:24.806Z,3.53
2023-03-21T20:20:49.714Z,3.05
2023-03-21T20:26:15.536Z,3.83
2023-03-21T20:31:39.907Z,3.58
2023-03-21T20:37:06.386Z,3.70
2023-03-21T20:42:31.726Z,3.80
2023-03-21T20:47:55.580Z,4.63
2023-03-21T20:53:19.358Z,3.95
2023-03-21T20:59:04.489Z,3.95
2023-03-21T21:04:48.309Z,3.90
2023-03-21T21:10:16.583Z,4.13
2023-03-21T21:15:42.206Z,4.90
2023-03-21T21:21:07.687Z,3.83
2023-03-21T21:26:31.529Z,4.72
2023-03-21T21:31:56.663Z,5.30
2023-03-21T21:37:20.408Z,6.13
2023-03-21T21:42:45.100Z,6.38
2023-03-21T21:48:11.651Z,7.13
2023-03-21T21:53:36.514Z,6.75
2023-03-21T21:59:02.280Z,6.88
2023-03-21T22:04:28.647Z,6.32
2023-03-21T22:09:52.843Z,5.82
2023-03-21T22:15:18.173Z,5.80
2023-03-21T22:20:43.274Z,5.45
2023-03-21T22:26:07.278Z,5.47
2023-03-21T22:31:31.022Z,5.70
2023-03-21T22:36:57.102Z,5.40
2023-03-21T22:42:21.056Z,5.32
2023-03-21T22:47:44.818Z,6.13
2023-03-21T22:53:10.173Z,6.13
2023-03-21T22:58:33.850Z,6.07
2023-03-21T23:03:57.688Z,6.15
2023-03-21T23:09:22.877Z,6.90
2023-03-21T23:14:46.581Z,6.07
2023-03-21T23:20:10.950Z,6.05
2023-03-21T23:25:38.636Z,8.80
2023-03-21T23:31:08.282Z,6.80
2023-03-21T23:36:32.208Z,6.53
2023-03-21T23:41:58.694Z,7.30
2023-03-21T23:47:22.449Z,8.70
2023-03-21T23:52:49.256Z,6.30
2023-03-21T23:58:14.467Z,6.28
